logo tempoitalia

Diretta Meteo Skopje-Petrovec, Macedonialunedì 31 agosto ore 07:20

Mappa
Sereno 22 °C Sereno 24 Ore: T.min 20 T.max 36
Ponente Nord Km/h 3.7 Punto di rugiada: 15 °C Umidità: 64% Visibilità: 10 Km
Il sole sorge alle: 05:58 Il sole tramonta alle: 19:09
31 Agosto 2026 07:20 tempo osservato: Sereno Sereno 22 64 1017 vento: Nord N 3.7
31 Agosto 2026 06:50 tempo osservato: Sereno Sereno 21 73 1017 vento: Nord N 1.8
31 Agosto 2026 06:20 tempo osservato: Sereno Sereno 20 77 1017 vento: Nord N 3.7
31 Agosto 2026 05:50 tempo osservato: Sereno Sereno 21 68 1017 vento: Nord N 5.5
31 Agosto 2026 05:20 tempo osservato: Sereno Sereno 21 73 1017 vento: Nord N 1.8
31 Agosto 2026 04:50 tempo osservato: Sereno Sereno 22 68 1016 vento: Nord N 1.8
31 Agosto 2026 04:20 tempo osservato: Poco Nuvoloso Poco Nuvoloso 23 60 1016 vento: Nord NE 7.4
31 Agosto 2026 03:50 tempo osservato: Poco Nuvoloso Poco Nuvoloso 23 60 1016 vento: Nord NE 7.4
31 Agosto 2026 03:20 tempo osservato: Molto Nuvoloso Molto Nuvoloso 24 57 1016 vento: Nord N/NE 9.3
31 Agosto 2026 02:50 tempo osservato: Molto Nuvoloso Molto Nuvoloso 24 60 1016 vento: Nord N 3.7
31 Agosto 2026 02:20 tempo osservato: Sereno Sereno 24 57 1016 vento: Nord N 1.8
31 Agosto 2026 01:50 tempo osservato: Poco Nuvoloso Poco Nuvoloso 25 57 1016 vento: Nord N 3.7
31 Agosto 2026 01:20 tempo osservato: Poco Nuvoloso Poco Nuvoloso 25 57 1016 vento: Nord N 5.5
31 Agosto 2026 00:50 tempo osservato: Poco Nuvoloso Poco Nuvoloso 26 57 1016 vento: Nord S/SE 7.4
31 Agosto 2026 00:20 tempo osservato: Poco Nuvoloso Poco Nuvoloso 27 47 1016 vento: Nord E/NE 7.4
30 Agosto 2026 23:54 tempo osservato: Molto Nuvoloso Molto Nuvoloso 27 47 1016 vento: Nord E 7.4
30 Agosto 2026 23:20 tempo osservato: Molto Nuvoloso Molto Nuvoloso 25 47 1016 vento: Nord N 1.8
30 Agosto 2026 22:50 tempo osservato: Molto Nuvoloso Molto Nuvoloso 27 42 1016 vento: Nord N 5.5
30 Agosto 2026 22:20 tempo osservato: Molto Nuvoloso Molto Nuvoloso 28 39 1015 vento: Nord E 11.1
30 Agosto 2026 21:50 tempo osservato: Nuvoloso Nuvoloso 27 42 1015 vento: Nord N 5.5
30 Agosto 2026 21:20 tempo osservato: Poco Nuvoloso Poco Nuvoloso 27 42 1015 vento: Nord N 5.5
30 Agosto 2026 20:50 tempo osservato: Poco Nuvoloso Poco Nuvoloso 27 44 1015 vento: Nord N 5.5
30 Agosto 2026 20:20 tempo osservato: Poco Nuvoloso Poco Nuvoloso 29 37 1015 vento: Nord N 3.7
30 Agosto 2026 19:50 tempo osservato: Poco Nuvoloso Poco Nuvoloso 31 33 1014 vento: Nord N/NE 9.3
30 Agosto 2026 19:20 tempo osservato: Sereno Sereno 32 31 1014 vento: Nord E/NE 7.4
30 Agosto 2026 18:50 tempo osservato: Sereno Sereno 34 28 1014 vento: Nord E/NE 11.1
30 Agosto 2026 18:20 tempo osservato: Sereno Sereno 35 26 1013 vento: Nord NE 13
30 Agosto 2026 17:50 tempo osservato: Sereno Sereno 35 28 1013 vento: Nord N/NE 13
30 Agosto 2026 17:20 tempo osservato: Sereno Sereno 36 26 1013 vento: Nord N/NE 13
30 Agosto 2026 16:50 tempo osservato: Sereno Sereno 36 26 1014 vento: Nord NE 11.1
30 Agosto 2026 16:20 tempo osservato: Sereno Sereno 36 28 1014 vento: Nord N 5.5
30 Agosto 2026 15:50 tempo osservato: Sereno Sereno 36 28 1014 vento: Nord N 9.3
30 Agosto 2026 15:20 tempo osservato: Sereno Sereno 36 28 1014 vento: Nord N 5.5
30 Agosto 2026 14:50 tempo osservato: Sereno Sereno 36 28 1015 vento: Nord N 9.3
30 Agosto 2026 14:20 tempo osservato: Sereno Sereno 36 28 1015 vento: Nord N 13
30 Agosto 2026 13:50 tempo osservato: Sereno Sereno 35 32 1015 vento: Nord N 11.1
30 Agosto 2026 13:20 tempo osservato: Sereno Sereno 34 36 1016 vento: Nord N/NE 11.1
30 Agosto 2026 12:50 tempo osservato: Sereno Sereno 35 32 1016 vento: Nord N 9.3
30 Agosto 2026 12:20 tempo osservato: Sereno Sereno 33 38 1017 vento: Nord N 7.4
30 Agosto 2026 11:50 tempo osservato: Sereno Sereno 32 43 1017 vento: Nord N 3.7
30 Agosto 2026 11:20 tempo osservato: Sereno Sereno 30 48 1017 vento: Nord N 5.5
30 Agosto 2026 10:50 tempo osservato: Sereno Sereno 29 51 1018 vento: Nord N 5.5
30 Agosto 2026 10:20 tempo osservato: Sereno Sereno 28 54 1018 vento: Nord N 5.5
30 Agosto 2026 09:50 tempo osservato: Sereno Sereno 27 57 1018 vento: Nord N 5.5
30 Agosto 2026 09:20 tempo osservato: Sereno Sereno 25 61 1018 vento: Nord N 5.5
30 Agosto 2026 08:50 tempo osservato: Sereno Sereno 24 64 1018 vento: Nord N 3.7
30 Agosto 2026 08:20 tempo osservato: Sereno Sereno 23 68 1018 vento: Nord N 5.5
30 Agosto 2026 07:50 tempo osservato: Sereno Sereno 22 73 1017 vento: Nord E/SE 9.3